Time;durP1;ratioP1;P1;durP2;ratioP2;P2;SDS_P1;SDS_P2;PMS_P1;PMS_P2;Temp;Humidity;BMP_temperature;BMP_pressure;BME280_temperature;BME280_humidity;BME280_pressure;Samples;Min_cycle;Max_cycle;Signal;HPM_P1;HPM_P2
2022/04/11 00:00:43;;;;;;;;;;;21.20;34.40;;;;;;498918;239;1194;-39
2022/04/11 00:02:44;;;;;;;;;;;21.30;34.40;;;;;;498360;239;1209;-39
2022/04/11 00:04:46;;;;;;;;;;;21.30;34.40;;;;;;498943;239;1277;-39
2022/04/11 00:06:47;;;;;;;;;;;21.20;34.40;;;;;;498847;239;1188;-39
2022/04/11 00:08:48;;;;;;;;;;;21.30;34.40;;;;;;498837;239;1265;-39
2022/04/11 00:10:50;;;;;;;;;;;21.20;34.30;;;;;;498492;239;1094;-39
2022/04/11 00:12:51;;;;;;;;;;;21.20;34.40;;;;;;498851;239;1253;-39
2022/04/11 00:14:52;;;;;;;;;;;21.20;34.40;;;;;;498718;239;1204;-39
2022/04/11 00:16:53;;;;;;;;;;;21.20;34.30;;;;;;498837;239;2129;-39
2022/04/11 00:18:55;;;;;;;;;;;21.30;34.40;;;;;;498930;239;1062;-39
2022/04/11 00:20:56;;;;;;;;;;;21.30;34.30;;;;;;498923;239;1166;-39
2022/04/11 00:22:57;;;;;;;;;;;21.30;34.30;;;;;;498856;239;1604;-39
2022/04/11 00:24:59;;;;;;;;;;;21.30;34.30;;;;;;498954;239;1075;-39
2022/04/11 00:27:00;;;;;;;;;;;21.30;34.40;;;;;;498329;239;1331;-39
2022/04/11 00:29:01;;;;;;;;;;;21.30;34.40;;;;;;498923;239;1020;-39
2022/04/11 00:31:03;;;;;;;;;;;21.30;34.40;;;;;;498873;239;1386;-39
2022/04/11 00:33:04;;;;;;;;;;;21.20;34.40;;;;;;498787;239;1512;-39
2022/04/11 00:35:05;;;;;;;;;;;21.30;34.40;;;;;;498966;239;1049;-39
2022/04/11 00:37:07;;;;;;;;;;;21.30;34.30;;;;;;498738;239;2196;-39
2022/04/11 00:39:08;;;;;;;;;;;21.30;34.30;;;;;;498924;239;1190;-39
2022/04/11 00:41:09;;;;;;;;;;;21.20;34.40;;;;;;498892;239;1260;-39
2022/04/11 00:43:11;;;;;;;;;;;21.20;34.40;;;;;;498832;239;1143;-39
2022/04/11 00:45:12;;;;;;;;;;;21.20;34.40;;;;;;498673;239;1149;-39
2022/04/11 00:47:13;;;;;;;;;;;21.20;34.40;;;;;;498580;239;1220;-39
2022/04/11 00:49:15;;;;;;;;;;;21.30;34.40;;;;;;498892;239;1052;-39
2022/04/11 00:51:16;;;;;;;;;;;21.20;34.30;;;;;;498860;239;1365;-39
2022/04/11 00:53:17;;;;;;;;;;;21.20;34.40;;;;;;498909;239;1046;-39
2022/04/11 00:55:19;;;;;;;;;;;21.30;34.40;;;;;;498444;239;1091;-39
2022/04/11 00:57:20;;;;;;;;;;;21.20;34.30;;;;;;498870;239;2113;-39
2022/04/11 00:59:21;;;;;;;;;;;21.30;34.40;;;;;;498933;239;1042;-39
2022/04/11 01:01:23;;;;;;;;;;;21.30;34.40;;;;;;498390;239;1336;-39
2022/04/11 01:03:24;;;;;;;;;;;21.20;34.30;;;;;;498449;239;1115;-39
2022/04/11 01:05:25;;;;;;;;;;;21.30;34.40;;;;;;498921;239;1058;-39
2022/04/11 01:07:26;;;;;;;;;;;21.30;34.30;;;;;;498837;239;1133;-39
2022/04/11 01:09:28;;;;;;;;;;;21.30;34.30;;;;;;498433;239;1074;-39
2022/04/11 01:11:29;;;;;;;;;;;21.30;34.30;;;;;;498394;239;1192;-39
2022/04/11 01:13:31;;;;;;;;;;;21.30;34.30;;;;;;498889;239;1039;-39
2022/04/11 01:15:32;;;;;;;;;;;21.30;34.30;;;;;;498683;239;1162;-39
2022/04/11 01:17:34;;;;;;;;;;;21.30;34.30;;;;;;498768;239;2185;-39
2022/04/11 01:19:35;;;;;;;;;;;21.20;34.30;;;;;;498436;239;1056;-39
2022/04/11 01:21:36;;;;;;;;;;;21.20;34.40;;;;;;498855;239;1260;-39
2022/04/11 01:23:38;;;;;;;;;;;21.20;34.40;;;;;;498945;239;1018;-39
2022/04/11 01:25:39;;;;;;;;;;;21.20;34.40;;;;;;498942;239;1041;-39
2022/04/11 01:27:40;;;;;;;;;;;21.20;34.40;;;;;;498824;239;1248;-39
2022/04/11 01:29:42;;;;;;;;;;;21.20;34.40;;;;;;498871;239;1159;-39
2022/04/11 01:31:43;;;;;;;;;;;21.20;34.40;;;;;;498390;239;1309;-39
2022/04/11 01:33:44;;;;;;;;;;;21.20;34.40;;;;;;498462;239;1011;-39
2022/04/11 01:35:46;;;;;;;;;;;21.20;34.40;;;;;;498911;239;1107;-39
2022/04/11 01:37:47;;;;;;;;;;;21.20;34.40;;;;;;498871;239;2184;-39
2022/04/11 01:39:48;;;;;;;;;;;21.20;34.40;;;;;;498537;239;1085;-39
2022/04/11 01:41:50;;;;;;;;;;;21.20;34.40;;;;;;498872;239;1391;-39
2022/04/11 01:43:51;;;;;;;;;;;21.20;34.50;;;;;;498915;239;1023;-39
2022/04/11 01:45:52;;;;;;;;;;;21.20;34.40;;;;;;498679;239;1193;-39
2022/04/11 01:47:53;;;;;;;;;;;21.20;34.40;;;;;;498441;239;964;-39
2022/04/11 01:49:55;;;;;;;;;;;21.20;34.40;;;;;;498927;239;1177;-39
2022/04/11 01:51:56;;;;;;;;;;;21.20;34.40;;;;;;498806;239;1137;-39
2022/04/11 01:53:57;;;;;;;;;;;21.30;34.40;;;;;;498858;239;1087;-39
2022/04/11 01:55:59;;;;;;;;;;;21.30;34.30;;;;;;498421;239;1168;-39
2022/04/11 01:58:00;;;;;;;;;;;21.20;34.40;;;;;;498475;239;2118;-39
2022/04/11 02:00:01;;;;;;;;;;;21.30;34.30;;;;;;498508;239;1084;-39
2022/04/11 02:02:03;;;;;;;;;;;21.20;34.30;;;;;;498413;239;1249;-39
2022/04/11 02:04:04;;;;;;;;;;;21.20;34.40;;;;;;498720;239;1019;-39
2022/04/11 02:06:05;;;;;;;;;;;21.20;34.40;;;;;;498942;238;1236;-39
2022/04/11 02:08:07;;;;;;;;;;;21.20;34.40;;;;;;498966;239;1179;-39
2022/04/11 02:10:08;;;;;;;;;;;21.20;34.30;;;;;;498559;239;1100;-39
2022/04/11 02:12:09;;;;;;;;;;;21.20;34.30;;;;;;498926;239;1322;-39
2022/04/11 02:14:10;;;;;;;;;;;21.20;34.40;;;;;;498963;239;1007;-39
2022/04/11 02:16:12;;;;;;;;;;;21.20;34.30;;;;;;498472;239;1236;-39
2022/04/11 02:18:13;;;;;;;;;;;21.30;34.40;;;;;;498923;239;2193;-39
2022/04/11 02:20:15;;;;;;;;;;;21.20;34.40;;;;;;498504;239;1047;-39
2022/04/11 02:22:16;;;;;;;;;;;21.20;34.50;;;;;;498819;239;1163;-39
2022/04/11 02:24:17;;;;;;;;;;;21.20;34.50;;;;;;498959;239;1145;-39
2022/04/11 02:26:18;;;;;;;;;;;21.20;34.50;;;;;;498902;239;1319;-39
2022/04/11 02:28:20;;;;;;;;;;;21.10;34.40;;;;;;498905;239;1102;-39
2022/04/11 02:30:22;;;;;;;;;;;21.20;34.40;;;;;;498944;239;1049;-39
2022/04/11 02:32:23;;;;;;;;;;;21.20;34.40;;;;;;498433;239;1229;-39
2022/04/11 02:34:25;;;;;;;;;;;21.20;34.30;;;;;;498429;239;1051;-39
2022/04/11 02:36:26;;;;;;;;;;;21.20;34.30;;;;;;498391;239;2370;-39
2022/04/11 02:38:27;;;;;;;;;;;21.20;34.40;;;;;;498961;239;2106;-39
2022/04/11 02:40:28;;;;;;;;;;;21.20;34.40;;;;;;498945;239;1047;-39
2022/04/11 02:42:30;;;;;;;;;;;21.20;34.50;;;;;;498413;239;1043;-39
2022/04/11 02:44:31;;;;;;;;;;;21.20;34.50;;;;;;498903;239;1232;-39
2022/04/11 02:46:33;;;;;;;;;;;21.20;34.50;;;;;;498451;239;1225;-39
2022/04/11 02:48:34;;;;;;;;;;;21.10;34.40;;;;;;498947;239;1047;-39
2022/04/11 02:50:36;;;;;;;;;;;21.20;34.40;;;;;;498458;239;1022;-39
2022/04/11 02:52:37;;;;;;;;;;;21.20;34.40;;;;;;498907;239;1025;-39
2022/04/11 02:54:38;;;;;;;;;;;21.20;34.40;;;;;;498467;239;1077;-39
2022/04/11 02:56:40;;;;;;;;;;;21.20;34.40;;;;;;498404;239;2181;-39
2022/04/11 02:58:41;;;;;;;;;;;21.20;34.30;;;;;;498905;239;1149;-39
2022/04/11 03:00:43;;;;;;;;;;;21.20;34.30;;;;;;498440;239;1331;-39
2022/04/11 03:02:44;;;;;;;;;;;21.20;34.30;;;;;;498521;239;1196;-39
2022/04/11 03:04:46;;;;;;;;;;;21.20;34.40;;;;;;498953;239;1024;-39
2022/04/11 03:06:47;;;;;;;;;;;21.20;34.30;;;;;;498852;239;1372;-39
2022/04/11 03:08:48;;;;;;;;;;;21.20;34.40;;;;;;498898;239;1116;-39
2022/04/11 03:10:49;;;;;;;;;;;21.20;34.30;;;;;;498904;239;1113;-39
2022/04/11 03:12:51;;;;;;;;;;;21.20;34.30;;;;;;498922;239;1116;-39
2022/04/11 03:14:52;;;;;;;;;;;21.20;34.30;;;;;;498930;239;1103;-39
2022/04/11 03:16:53;;;;;;;;;;;21.20;34.40;;;;;;498358;239;2201;-39
2022/04/11 03:18:55;;;;;;;;;;;21.20;34.40;;;;;;498962;239;1040;-39
2022/04/11 03:20:56;;;;;;;;;;;21.20;34.40;;;;;;498910;239;1302;-39
2022/04/11 03:22:58;;;;;;;;;;;21.20;34.40;;;;;;498906;239;1172;-39
2022/04/11 03:24:59;;;;;;;;;;;21.20;34.40;;;;;;498959;239;1073;-39
2022/04/11 03:27:01;;;;;;;;;;;21.20;34.40;;;;;;498905;239;1230;-39
2022/04/11 03:29:02;;;;;;;;;;;21.20;34.40;;;;;;498963;239;2069;-39
2022/04/11 03:31:03;;;;;;;;;;;21.20;34.40;;;;;;498935;236;1388;-39
2022/04/11 03:33:05;;;;;;;;;;;21.20;34.40;;;;;;498534;239;1353;-39
2022/04/11 03:35:06;;;;;;;;;;;21.20;34.40;;;;;;498922;239;1403;-39
2022/04/11 03:37:07;;;;;;;;;;;21.30;34.40;;;;;;498408;239;2184;-39
2022/04/11 03:39:09;;;;;;;;;;;21.20;34.30;;;;;;498449;239;1050;-39
2022/04/11 03:41:10;;;;;;;;;;;21.20;34.40;;;;;;498409;236;1186;-39
2022/04/11 03:43:11;;;;;;;;;;;21.20;34.40;;;;;;498647;239;1131;-39
2022/04/11 03:45:13;;;;;;;;;;;21.20;34.40;;;;;;498955;239;1042;-39
2022/04/11 03:47:14;;;;;;;;;;;21.20;34.40;;;;;;498599;239;1395;-39
2022/04/11 03:49:15;;;;;;;;;;;21.20;34.40;;;;;;498910;239;1098;-39
2022/04/11 03:51:17;;;;;;;;;;;21.20;34.30;;;;;;498808;239;1555;-39
2022/04/11 03:53:18;;;;;;;;;;;21.20;34.30;;;;;;498891;239;1249;-39
2022/04/11 03:55:19;;;;;;;;;;;21.20;34.40;;;;;;498875;239;1082;-39
2022/04/11 03:57:21;;;;;;;;;;;21.20;34.40;;;;;;498360;239;2110;-39
2022/04/11 03:59:22;;;;;;;;;;;21.20;34.40;;;;;;498425;239;1058;-39
2022/04/11 04:01:23;;;;;;;;;;;21.20;34.30;;;;;;498636;239;1192;-39
2022/04/11 04:03:25;;;;;;;;;;;21.20;34.40;;;;;;498455;239;1191;-39
2022/04/11 04:05:26;;;;;;;;;;;21.20;34.40;;;;;;498866;236;1123;-39
2022/04/11 04:07:27;;;;;;;;;;;21.20;34.30;;;;;;498871;239;1146;-39
2022/04/11 04:09:28;;;;;;;;;;;21.20;34.40;;;;;;498903;239;1040;-39
2022/04/11 04:11:30;;;;;;;;;;;21.20;34.30;;;;;;498845;236;1593;-39
2022/04/11 04:13:31;;;;;;;;;;;21.20;34.30;;;;;;498839;239;1107;-39
2022/04/11 04:15:32;;;;;;;;;;;21.20;34.30;;;;;;498357;239;1043;-39
2022/04/11 04:17:34;;;;;;;;;;;21.20;34.30;;;;;;498378;239;2200;-39
2022/04/11 04:19:35;;;;;;;;;;;21.30;34.20;;;;;;498330;239;1764;-39
2022/04/11 04:21:36;;;;;;;;;;;21.20;34.30;;;;;;498257;236;1318;-39
2022/04/11 04:23:38;;;;;;;;;;;21.20;34.40;;;;;;498318;239;1034;-39
2022/04/11 04:25:39;;;;;;;;;;;21.20;34.30;;;;;;498642;239;1126;-39
2022/04/11 04:27:40;;;;;;;;;;;21.20;34.30;;;;;;498256;239;1209;-39
2022/04/11 04:29:42;;;;;;;;;;;21.20;34.30;;;;;;498786;239;984;-39
2022/04/11 04:31:43;;;;;;;;;;;21.20;34.30;;;;;;498270;239;1218;-39
2022/04/11 04:33:45;;;;;;;;;;;21.20;34.40;;;;;;498367;239;1202;-39
2022/04/11 04:35:46;;;;;;;;;;;21.20;34.40;;;;;;498730;239;1542;-39
2022/04/11 04:37:47;;;;;;;;;;;21.20;34.30;;;;;;498536;239;2126;-39
2022/04/11 04:39:49;;;;;;;;;;;21.20;34.30;;;;;;498224;239;1042;-39
2022/04/11 04:41:50;;;;;;;;;;;21.30;34.30;;;;;;498630;239;1476;-39
2022/04/11 04:43:51;;;;;;;;;;;21.20;34.30;;;;;;498216;239;1407;-39
2022/04/11 04:45:52;;;;;;;;;;;21.20;34.30;;;;;;498724;239;1368;-39
2022/04/11 04:47:54;;;;;;;;;;;21.20;34.30;;;;;;498609;239;1272;-39
2022/04/11 04:49:55;;;;;;;;;;;21.20;34.30;;;;;;498787;239;962;-39
2022/04/11 04:51:57;;;;;;;;;;;21.30;34.30;;;;;;498238;239;1322;-39
2022/04/11 04:53:58;;;;;;;;;;;21.30;34.30;;;;;;498794;239;1056;-39
2022/04/11 04:55:59;;;;;;;;;;;21.30;34.30;;;;;;498753;239;1591;-39
2022/04/11 04:58:01;;;;;;;;;;;21.30;34.20;;;;;;498194;239;2180;-39
2022/04/11 05:00:02;;;;;;;;;;;21.30;34.20;;;;;;498470;239;1146;-39
2022/04/11 05:02:03;;;;;;;;;;;21.30;34.20;;;;;;498522;239;1115;-39
2022/04/11 05:04:04;;;;;;;;;;;21.30;34.20;;;;;;498334;239;1355;-39
2022/04/11 05:06:06;;;;;;;;;;;21.30;34.20;;;;;;498698;239;1101;-39
2022/04/11 05:08:08;;;;;;;;;;;21.30;34.20;;;;;;498158;239;1122;-39
2022/04/11 05:10:09;;;;;;;;;;;21.30;34.20;;;;;;498393;239;1063;-39
2022/04/11 05:12:10;;;;;;;;;;;21.30;34.30;;;;;;498112;239;1226;-39
2022/04/11 05:14:11;;;;;;;;;;;21.30;34.20;;;;;;498671;239;1062;-39
2022/04/11 05:16:15;;;;;;;;;;;21.30;34.30;;;;;;498169;239;1146;-39
2022/04/11 05:18:14;;;;;;;;;;;21.30;34.30;;;;;;498012;239;2193;-39
2022/04/11 05:20:15;;;;;;;;;;;21.30;34.20;;;;;;498616;239;1006;-39
2022/04/11 05:22:17;;;;;;;;;;;21.30;34.10;;;;;;498257;239;1159;-39
2022/04/11 05:24:18;;;;;;;;;;;21.30;34.10;;;;;;498172;239;1069;-39
2022/04/11 05:26:19;;;;;;;;;;;21.30;34.30;;;;;;498197;239;1301;-39
2022/04/11 05:28:21;;;;;;;;;;;21.30;34.20;;;;;;498210;239;1071;-39
2022/04/11 05:30:22;;;;;;;;;;;21.30;34.20;;;;;;498234;239;1036;-39
2022/04/11 05:32:23;;;;;;;;;;;21.30;34.20;;;;;;497912;239;1189;-39
2022/04/11 05:34:24;;;;;;;;;;;21.30;34.30;;;;;;498036;239;1211;-39
2022/04/11 05:36:26;;;;;;;;;;;21.30;34.30;;;;;;498318;239;1120;-39
2022/04/11 05:38:27;;;;;;;;;;;21.20;34.20;;;;;;498147;239;2110;-39
2022/04/11 05:40:28;;;;;;;;;;;21.20;34.30;;;;;;498571;239;1135;-39
2022/04/11 05:42:30;;;;;;;;;;;21.20;34.30;;;;;;498059;239;1473;-39
2022/04/11 05:44:31;;;;;;;;;;;21.20;34.30;;;;;;498204;239;1586;-39
2022/04/11 05:46:32;;;;;;;;;;;21.30;34.30;;;;;;498387;239;1292;-39
2022/04/11 05:48:34;;;;;;;;;;;21.20;34.30;;;;;;498132;239;1125;-39
2022/04/11 05:50:35;;;;;;;;;;;21.20;34.30;;;;;;498258;239;1256;-39
2022/04/11 05:52:36;;;;;;;;;;;21.20;34.30;;;;;;498053;239;1199;-39
2022/04/11 05:54:38;;;;;;;;;;;21.20;34.30;;;;;;498594;239;1271;-39
2022/04/11 05:56:40;;;;;;;;;;;21.20;34.30;;;;;;498061;239;1521;-39
2022/04/11 05:58:41;;;;;;;;;;;21.20;34.30;;;;;;497934;239;2181;-39
2022/04/11 06:00:42;;;;;;;;;;;21.20;34.30;;;;;;497870;239;1062;-39
2022/04/11 06:02:44;;;;;;;;;;;21.20;34.40;;;;;;498041;239;1268;-39
2022/04/11 06:04:45;;;;;;;;;;;21.20;34.30;;;;;;498239;239;1210;-39
2022/04/11 06:06:46;;;;;;;;;;;21.20;34.40;;;;;;498261;239;1353;-39
2022/04/11 06:08:47;;;;;;;;;;;21.20;34.30;;;;;;498061;239;1280;-39
2022/04/11 06:10:49;;;;;;;;;;;21.20;34.30;;;;;;497969;239;1342;-39
2022/04/11 06:12:50;;;;;;;;;;;21.20;34.30;;;;;;497944;239;1271;-39
2022/04/11 06:14:53;;;;;;;;;;;21.20;34.40;;;;;;497996;239;1079;-39
2022/04/11 06:16:53;;;;;;;;;;;21.10;34.40;;;;;;498000;239;2310;-39
2022/04/11 06:18:54;;;;;;;;;;;21.20;34.30;;;;;;497902;239;2188;-39
2022/04/11 06:20:55;;;;;;;;;;;21.20;34.20;;;;;;497822;238;1309;-39
2022/04/11 06:22:57;;;;;;;;;;;21.20;34.20;;;;;;497882;239;1196;-39
2022/04/11 06:24:58;;;;;;;;;;;21.30;34.30;;;;;;497819;239;2199;-39
2022/04/11 06:27:01;;;;;;;;;;;21.30;34.20;;;;;;497681;239;1280;-39
2022/04/11 06:29:01;;;;;;;;;;;21.30;34.20;;;;;;497614;239;1862;-39
2022/04/11 06:31:02;;;;;;;;;;;21.30;34.10;;;;;;497627;239;1326;-39
2022/04/11 06:33:03;;;;;;;;;;;21.30;34.10;;;;;;497789;239;1224;-39
2022/04/11 06:35:05;;;;;;;;;;;21.20;34.10;;;;;;497870;239;1263;-39
2022/04/11 06:37:06;;;;;;;;;;;21.20;34.10;;;;;;498020;239;1206;-39
2022/04/11 06:39:07;;;;;;;;;;;21.20;34.20;;;;;;497853;239;2197;-39
2022/04/11 06:41:09;;;;;;;;;;;21.20;34.10;;;;;;497722;239;1318;-39
2022/04/11 06:43:10;;;;;;;;;;;21.30;34.20;;;;;;498047;239;1219;-39
2022/04/11 06:45:11;;;;;;;;;;;21.20;34.10;;;;;;497669;239;1363;-39
2022/04/11 06:47:13;;;;;;;;;;;21.20;34.10;;;;;;497880;239;1171;-39
2022/04/11 06:49:14;;;;;;;;;;;21.30;34.10;;;;;;497881;239;1248;-39
2022/04/11 06:51:16;;;;;;;;;;;21.30;34.10;;;;;;497603;239;1300;-39
2022/04/11 06:53:17;;;;;;;;;;;21.30;34.10;;;;;;497952;239;1069;-39
2022/04/11 06:55:18;;;;;;;;;;;21.30;34.10;;;;;;497599;239;1337;-39
2022/04/11 06:57:19;;;;;;;;;;;21.30;33.90;;;;;;497504;239;1482;-39
2022/04/11 06:59:21;;;;;;;;;;;21.30;34.00;;;;;;497679;239;2181;-39
2022/04/11 07:01:22;;;;;;;;;;;21.30;34.00;;;;;;497763;239;1351;-39
2022/04/11 07:03:23;;;;;;;;;;;21.20;34.00;;;;;;497905;239;1046;-39
2022/04/11 07:05:25;;;;;;;;;;;21.30;34.00;;;;;;497791;236;1322;-39
2022/04/11 07:07:26;;;;;;;;;;;21.30;34.00;;;;;;497644;239;1203;-39
2022/04/11 07:09:28;;;;;;;;;;;21.30;33.90;;;;;;497887;239;1087;-39
2022/04/11 07:11:31;;;;;;;;;;;21.30;34.00;;;;;;497672;239;1810;-39
2022/04/11 07:13:31;;;;;;;;;;;21.20;34.00;;;;;;497683;239;2001;-39
2022/04/11 07:15:32;;;;;;;;;;;21.20;33.90;;;;;;497680;239;1110;-39
2022/04/11 07:17:34;;;;;;;;;;;21.20;33.90;;;;;;497589;239;1387;-39
2022/04/11 07:19:35;;;;;;;;;;;21.30;33.90;;;;;;497654;239;2117;-39
2022/04/11 07:21:36;;;;;;;;;;;21.20;33.90;;;;;;497756;239;1203;-39
2022/04/11 07:23:38;;;;;;;;;;;21.30;33.90;;;;;;497960;239;1386;-39
2022/04/11 07:25:39;;;;;;;;;;;21.20;33.90;;;;;;497630;239;1117;-39
2022/04/11 07:27:40;;;;;;;;;;;21.20;33.90;;;;;;497728;239;1199;-39
2022/04/11 07:29:42;;;;;;;;;;;21.20;33.90;;;;;;497635;239;1029;-39
2022/04/11 07:31:43;;;;;;;;;;;21.20;33.90;;;;;;497469;239;1166;-39
2022/04/11 07:33:44;;;;;;;;;;;21.20;33.80;;;;;;497623;239;1055;-39
2022/04/11 07:35:46;;;;;;;;;;;21.20;33.90;;;;;;497641;239;1217;-39
2022/04/11 07:37:47;;;;;;;;;;;21.20;33.80;;;;;;497704;239;1291;-39
2022/04/11 07:39:48;;;;;;;;;;;21.20;33.90;;;;;;497701;239;2189;-39
2022/04/11 07:41:50;;;;;;;;;;;21.20;33.80;;;;;;497831;239;1312;-39
2022/04/11 07:43:53;;;;;;;;;;;21.20;33.80;;;;;;497487;239;1065;-39
2022/04/11 07:45:53;;;;;;;;;;;21.30;33.80;;;;;;497432;239;2372;-39
2022/04/11 07:47:54;;;;;;;;;;;21.30;33.80;;;;;;497606;239;1233;-39
2022/04/11 07:49:55;;;;;;;;;;;21.30;33.80;;;;;;497714;239;1197;-39
2022/04/11 07:51:57;;;;;;;;;;;21.30;33.80;;;;;;497654;239;1268;-39
2022/04/11 07:53:58;;;;;;;;;;;21.20;33.80;;;;;;497617;239;1127;-39
2022/04/11 07:56:00;;;;;;;;;;;21.20;33.80;;;;;;497676;239;1136;-39
2022/04/11 07:58:01;;;;;;;;;;;21.20;33.70;;;;;;497368;239;1195;-39
2022/04/11 08:00:02;;;;;;;;;;;21.20;33.70;;;;;;497653;239;2168;-39
2022/04/11 08:02:04;;;;;;;;;;;21.30;33.70;;;;;;497595;239;1236;-39
2022/04/11 08:04:05;;;;;;;;;;;21.20;33.70;;;;;;497482;239;1259;-39
2022/04/11 08:06:06;;;;;;;;;;;21.30;33.70;;;;;;497370;239;1396;-39
2022/04/11 08:08:08;;;;;;;;;;;21.30;33.70;;;;;;497558;239;1069;-39
2022/04/11 08:10:09;;;;;;;;;;;21.30;33.60;;;;;;497564;239;1074;-39
2022/04/11 08:12:11;;;;;;;;;;;21.30;33.60;;;;;;497740;239;1248;-39
2022/04/11 08:14:12;;;;;;;;;;;21.30;33.50;;;;;;497700;239;1088;-39
2022/04/11 08:16:13;;;;;;;;;;;21.30;33.60;;;;;;497869;239;1190;-39
2022/04/11 08:18:15;;;;;;;;;;;21.30;33.60;;;;;;497781;239;1161;-39
2022/04/11 08:20:16;;;;;;;;;;;21.30;33.60;;;;;;497503;239;2177;-39
2022/04/11 08:22:17;;;;;;;;;;;21.30;33.60;;;;;;497479;239;1194;-39
2022/04/11 08:24:19;;;;;;;;;;;21.30;33.50;;;;;;497328;239;1254;-39
2022/04/11 08:26:20;;;;;;;;;;;21.30;33.60;;;;;;497330;239;1393;-39
2022/04/11 08:28:22;;;;;;;;;;;21.20;33.60;;;;;;497628;239;1141;-39
2022/04/11 08:30:23;;;;;;;;;;;21.20;33.60;;;;;;497481;239;1327;-39
2022/04/11 08:32:24;;;;;;;;;;;21.20;33.60;;;;;;497421;239;1168;-39
2022/04/11 08:34:26;;;;;;;;;;;21.30;33.60;;;;;;497606;239;1025;-39
2022/04/11 08:36:27;;;;;;;;;;;21.30;33.60;;;;;;497413;239;1257;-39
2022/04/11 08:38:28;;;;;;;;;;;21.30;33.50;;;;;;497683;239;1055;-39
2022/04/11 08:40:29;;;;;;;;;;;21.30;33.60;;;;;;497667;239;2169;-39
2022/04/11 08:42:31;;;;;;;;;;;21.30;33.60;;;;;;497576;239;1353;-39
2022/04/11 08:44:32;;;;;;;;;;;21.30;33.60;;;;;;497587;239;1042;-39
2022/04/11 08:46:34;;;;;;;;;;;21.30;33.50;;;;;;497467;239;1232;-39
2022/04/11 08:48:35;;;;;;;;;;;21.30;33.50;;;;;;497473;239;1387;-39
2022/04/11 08:50:36;;;;;;;;;;;21.30;33.60;;;;;;497532;239;2160;-39
2022/04/11 08:52:37;;;;;;;;;;;21.20;33.60;;;;;;497566;239;1146;-39
2022/04/11 08:54:39;;;;;;;;;;;21.20;33.50;;;;;;497614;239;1185;-39
2022/04/11 08:56:40;;;;;;;;;;;21.20;33.50;;;;;;497568;239;1246;-39
2022/04/11 08:58:42;;;;;;;;;;;21.20;33.50;;;;;;497512;239;1078;-39
2022/04/11 09:00:43;;;;;;;;;;;21.20;33.50;;;;;;497613;239;2176;-39
2022/04/11 09:02:44;;;;;;;;;;;21.30;33.50;;;;;;497676;239;1202;-39
2022/04/11 09:04:46;;;;;;;;;;;21.20;33.50;;;;;;497729;239;1041;-39
2022/04/11 09:06:47;;;;;;;;;;;21.20;33.40;;;;;;497588;239;1252;-39
2022/04/11 09:08:48;;;;;;;;;;;21.30;33.50;;;;;;497413;239;1090;-39
2022/04/11 09:10:50;;;;;;;;;;;21.30;33.40;;;;;;497479;239;1338;-39
2022/04/11 09:12:51;;;;;;;;;;;21.30;33.50;;;;;;497533;239;1102;-39
2022/04/11 09:14:52;;;;;;;;;;;21.20;33.40;;;;;;497786;239;1186;-39
2022/04/11 09:16:54;;;;;;;;;;;21.30;33.40;;;;;;497661;239;1201;-39
2022/04/11 09:18:55;;;;;;;;;;;21.30;33.40;;;;;;497572;239;2145;-39
2022/04/11 09:20:56;;;;;;;;;;;21.30;33.40;;;;;;497496;239;1257;-39
2022/04/11 09:22:58;;;;;;;;;;;21.30;33.40;;;;;;497538;239;1144;-39
2022/04/11 09:24:59;;;;;;;;;;;21.30;33.40;;;;;;497613;239;1111;-39
2022/04/11 09:27:00;;;;;;;;;;;21.30;33.40;;;;;;497496;239;1490;-39
2022/04/11 09:29:01;;;;;;;;;;;21.30;33.40;;;;;;497546;239;1131;-39
2022/04/11 09:31:03;;;;;;;;;;;21.20;33.40;;;;;;497481;239;1236;-39
2022/04/11 09:33:04;;;;;;;;;;;21.30;33.40;;;;;;497552;239;1155;-39
2022/04/11 09:35:05;;;;;;;;;;;21.30;33.40;;;;;;497842;239;1074;-39
2022/04/11 09:37:07;;;;;;;;;;;21.20;33.40;;;;;;497619;239;1142;-39
2022/04/11 09:39:08;;;;;;;;;;;21.30;33.40;;;;;;497641;239;2189;-39
2022/04/11 09:41:09;;;;;;;;;;;21.20;33.40;;;;;;497826;239;1330;-39
2022/04/11 09:43:11;;;;;;;;;;;21.30;33.40;;;;;;497681;239;1170;-39
2022/04/11 09:45:12;;;;;;;;;;;21.20;33.30;;;;;;497384;239;1147;-39
2022/04/11 09:47:13;;;;;;;;;;;21.20;33.30;;;;;;497314;239;1273;-39
2022/04/11 09:49:15;;;;;;;;;;;21.20;33.30;;;;;;497278;239;1071;-39
2022/04/11 09:51:16;;;;;;;;;;;21.20;33.30;;;;;;497434;239;1348;-39
2022/04/11 09:53:17;;;;;;;;;;;21.30;33.30;;;;;;497638;239;1111;-39
2022/04/11 09:55:19;;;;;;;;;;;21.30;33.30;;;;;;497696;239;1105;-39
2022/04/11 09:57:20;;;;;;;;;;;21.30;33.30;;;;;;497587;239;1204;-39
2022/04/11 09:59:21;;;;;;;;;;;21.20;33.20;;;;;;497705;239;2197;-39
2022/04/11 10:01:23;;;;;;;;;;;21.30;33.20;;;;;;497645;239;1318;-39
2022/04/11 10:03:24;;;;;;;;;;;21.30;33.20;;;;;;497708;239;1993;-39
2022/04/11 10:05:26;;;;;;;;;;;21.20;33.20;;;;;;497679;239;1124;-39
2022/04/11 10:07:27;;;;;;;;;;;21.30;33.20;;;;;;497716;239;1225;-39
2022/04/11 10:09:29;;;;;;;;;;;21.30;33.20;;;;;;497695;239;1071;-39
2022/04/11 10:11:30;;;;;;;;;;;21.20;33.20;;;;;;497666;239;1362;-39
2022/04/11 10:13:31;;;;;;;;;;;21.20;33.20;;;;;;497786;239;1171;-39
2022/04/11 10:15:33;;;;;;;;;;;21.30;33.20;;;;;;497802;239;1343;-39
2022/04/11 10:17:34;;;;;;;;;;;21.20;33.10;;;;;;497705;239;1268;-39
2022/04/11 10:19:35;;;;;;;;;;;21.30;33.10;;;;;;497392;239;2189;-39
2022/04/11 10:21:37;;;;;;;;;;;21.20;33.10;;;;;;497223;239;1216;-39
2022/04/11 10:23:38;;;;;;;;;;;21.20;33.10;;;;;;497415;239;1096;-39
2022/04/11 10:25:39;;;;;;;;;;;21.20;33.10;;;;;;497530;239;1423;-39
2022/04/11 10:27:41;;;;;;;;;;;21.30;33.10;;;;;;497589;239;1046;-39
2022/04/11 10:29:42;;;;;;;;;;;21.30;33.10;;;;;;497923;239;832;-39
2022/04/11 10:31:44;;;;;;;;;;;21.30;33.00;;;;;;497854;239;1269;-39
2022/04/11 10:33:45;;;;;;;;;;;21.30;33.00;;;;;;498100;239;749;-39
2022/04/11 10:35:46;;;;;;;;;;;21.20;33.00;;;;;;497575;239;1390;-39
2022/04/11 10:37:47;;;;;;;;;;;21.20;33.10;;;;;;497618;239;1045;-39
2022/04/11 10:39:49;;;;;;;;;;;21.20;33.10;;;;;;497635;239;2193;-39
2022/04/11 10:41:50;;;;;;;;;;;21.20;33.10;;;;;;497637;239;1172;-39
2022/04/11 10:43:51;;;;;;;;;;;21.20;33.10;;;;;;497583;239;1069;-39
2022/04/11 10:45:53;;;;;;;;;;;21.20;33.10;;;;;;497379;239;1444;-39
2022/04/11 10:47:54;;;;;;;;;;;21.20;33.00;;;;;;497470;239;1199;-39
2022/04/11 10:49:55;;;;;;;;;;;21.20;33.10;;;;;;497649;239;1043;-39
2022/04/11 10:51:56;;;;;;;;;;;21.20;33.00;;;;;;497724;239;1372;-39
2022/04/11 10:53:58;;;;;;;;;;;21.20;33.00;;;;;;497801;239;1165;-39
2022/04/11 10:55:59;;;;;;;;;;;21.20;33.10;;;;;;497795;239;1519;-39
2022/04/11 10:58:01;;;;;;;;;;;21.20;33.00;;;;;;497678;239;1126;-39
2022/04/11 11:00:02;;;;;;;;;;;21.20;33.00;;;;;;497625;239;2299;-39
2022/04/11 11:02:05;;;;;;;;;;;21.20;33.00;;;;;;497665;239;1132;-39
2022/04/11 11:04:04;;;;;;;;;;;21.20;32.90;;;;;;497412;239;2173;-39
2022/04/11 11:06:06;;;;;;;;;;;21.20;33.00;;;;;;497704;239;1176;-39
2022/04/11 11:08:07;;;;;;;;;;;21.20;32.90;;;;;;497479;239;1310;-39
2022/04/11 11:10:08;;;;;;;;;;;21.20;32.90;;;;;;497703;239;1111;-39
2022/04/11 11:12:10;;;;;;;;;;;21.20;32.90;;;;;;497671;239;1182;-39
2022/04/11 11:14:11;;;;;;;;;;;21.20;32.90;;;;;;497567;239;1041;-39
2022/04/11 11:16:14;;;;;;;;;;;21.20;32.90;;;;;;497303;239;1354;-39
2022/04/11 11:18:14;;;;;;;;;;;21.20;32.90;;;;;;497509;239;2069;-39
2022/04/11 11:20:15;;;;;;;;;;;21.30;32.80;;;;;;497515;239;2189;-39
2022/04/11 11:22:17;;;;;;;;;;;21.20;32.90;;;;;;497601;239;1469;-39
2022/04/11 11:24:19;;;;;;;;;;;21.20;32.90;;;;;;497586;239;1124;-39
2022/04/11 11:26:19;;;;;;;;;;;21.20;32.80;;;;;;497627;239;1966;-39
2022/04/11 11:28:21;;;;;;;;;;;21.20;32.80;;;;;;497589;239;1227;-39
2022/04/11 11:30:23;;;;;;;;;;;21.30;32.80;;;;;;497505;239;1474;-39
2022/04/11 11:32:23;;;;;;;;;;;21.20;32.70;;;;;;497654;239;2499;-39
2022/04/11 11:34:25;;;;;;;;;;;21.20;32.70;;;;;;497669;239;1111;-39
2022/04/11 11:36:26;;;;;;;;;;;21.20;32.80;;;;;;497586;239;1139;-39
2022/04/11 11:38:27;;;;;;;;;;;21.20;32.90;;;;;;497738;239;1196;-39
2022/04/11 11:40:29;;;;;;;;;;;21.20;32.80;;;;;;497470;239;2181;-39
2022/04/11 11:42:30;;;;;;;;;;;21.20;32.80;;;;;;497670;239;1131;-39
2022/04/11 11:44:32;;;;;;;;;;;21.20;32.80;;;;;;497962;239;1051;-39
2022/04/11 11:46:33;;;;;;;;;;;21.20;32.70;;;;;;497469;239;1125;-39
2022/04/11 11:48:34;;;;;;;;;;;21.20;32.70;;;;;;497548;239;1076;-39
2022/04/11 11:50:36;;;;;;;;;;;21.30;32.70;;;;;;497468;239;1309;-39
2022/04/11 11:52:40;;;;;;;;;;;21.20;32.70;;;;;;497494;239;1259;-39
2022/04/11 11:54:39;;;;;;;;;;;21.20;32.70;;;;;;498172;239;1781;-39
2022/04/11 11:56:40;;;;;;;;;;;21.20;32.80;;;;;;497772;239;1148;-39